createdAt,value
2018-08-09T00:01:11.309Z,97983.09
2018-08-09T00:03:39.781Z,97980.19
2018-08-09T00:06:08.325Z,97976.72
2018-08-09T00:08:36.861Z,97978.20
2018-08-09T00:11:05.364Z,97979.70
2018-08-09T00:13:33.909Z,97985.95
2018-08-09T00:16:02.407Z,97981.72
2018-08-09T00:18:30.971Z,97973.75
2018-08-09T00:20:59.465Z,97967.38
2018-08-09T00:23:27.981Z,97967.07
2018-08-09T00:25:56.539Z,97962.88
2018-08-09T00:28:25.051Z,97958.48
2018-08-09T00:30:53.593Z,97952.19
2018-08-09T00:33:22.175Z,97953.83
2018-08-09T00:35:50.726Z,97948.00
2018-08-09T00:38:20.053Z,97946.45
2018-08-09T00:40:48.598Z,97936.78
2018-08-09T00:43:17.148Z,97937.91
2018-08-09T00:45:45.682Z,97930.92
2018-08-09T00:48:14.217Z,97932.70
2018-08-09T00:50:42.773Z,97934.17
2018-08-09T00:53:11.321Z,97922.84
2018-08-09T00:55:39.868Z,97929.75
2018-08-09T00:58:08.417Z,97922.02
2018-08-09T01:00:36.958Z,97915.34
2018-08-09T01:03:05.834Z,97916.39
2018-08-09T01:05:34.353Z,97910.11
2018-08-09T01:08:02.865Z,97909.87
2018-08-09T01:10:31.388Z,97913.59
2018-08-09T01:12:59.932Z,97910.41
2018-08-09T01:15:28.519Z,97910.38
2018-08-09T01:17:57.034Z,97908.86
2018-08-09T01:20:25.541Z,97916.71
2018-08-09T01:22:54.163Z,97919.27
2018-08-09T01:25:22.648Z,97917.20
2018-08-09T01:27:51.220Z,97925.01
2018-08-09T01:30:19.752Z,97917.41
2018-08-09T01:32:48.291Z,97918.38
2018-08-09T01:35:16.797Z,97920.14
2018-08-09T01:37:45.339Z,97928.25
2018-08-09T01:40:13.837Z,97925.33
2018-08-09T01:42:53.517Z,97931.76
2018-08-09T01:45:22.063Z,97919.58
2018-08-09T01:47:50.599Z,97924.92
2018-08-09T01:50:19.131Z,97925.00
2018-08-09T01:52:47.665Z,97927.37
2018-08-09T01:55:16.207Z,97935.81
2018-08-09T01:57:44.759Z,97930.91
2018-08-09T02:00:13.290Z,97933.84
2018-08-09T02:02:41.724Z,97929.03
2018-08-09T02:05:10.809Z,97931.02
2018-08-09T02:07:39.327Z,97934.79
2018-08-09T02:10:07.884Z,97934.33
2018-08-09T02:12:36.356Z,97940.42
2018-08-09T02:15:05.186Z,97938.29
2018-08-09T02:17:33.689Z,97939.02
2018-08-09T02:20:02.301Z,97941.73
2018-08-09T02:22:30.797Z,97943.66
2018-08-09T02:24:59.325Z,97946.72
2018-08-09T02:27:27.827Z,97948.86
2018-08-09T02:29:56.332Z,97944.66
2018-08-09T02:32:24.829Z,97949.38
2018-08-09T02:34:53.357Z,97955.62
2018-08-09T02:37:21.889Z,97957.48
2018-08-09T02:39:50.404Z,97961.28
2018-08-09T02:42:18.933Z,97952.28
2018-08-09T02:44:47.417Z,97961.47
2018-08-09T02:47:15.961Z,97950.73
2018-08-09T02:49:45.483Z,97954.56
2018-08-09T02:52:13.993Z,97950.30
2018-08-09T02:54:42.520Z,97955.70
2018-08-09T02:57:11.049Z,97957.38
2018-08-09T02:59:39.581Z,97950.69
2018-08-09T03:02:08.097Z,97956.33
2018-08-09T03:04:36.634Z,97951.50
2018-08-09T03:07:05.373Z,97953.94
2018-08-09T03:09:33.872Z,97959.36
2018-08-09T03:12:02.358Z,97955.08
2018-08-09T03:14:30.900Z,97950.92
2018-08-09T03:16:59.433Z,97947.42
2018-08-09T03:19:27.988Z,97952.38
2018-08-09T03:21:56.553Z,97941.23
2018-08-09T03:24:25.130Z,97940.12
2018-08-09T03:26:53.610Z,97938.03
2018-08-09T03:29:22.104Z,97928.49
2018-08-09T03:31:50.614Z,97931.30
2018-08-09T03:34:19.093Z,97942.20
2018-08-09T03:36:47.642Z,97939.27
2018-08-09T03:39:16.156Z,97941.69
2018-08-09T03:41:44.682Z,97945.97
2018-08-09T03:44:13.221Z,97939.17
2018-08-09T03:46:41.760Z,97938.36
2018-08-09T03:49:10.280Z,97940.55
2018-08-09T03:51:38.812Z,97937.81
2018-08-09T03:54:07.302Z,97931.60
2018-08-09T03:56:35.837Z,97938.97
2018-08-09T04:00:33.488Z,97931.98
2018-08-09T04:03:01.991Z,97928.27
2018-08-09T04:05:30.549Z,97924.95
2018-08-09T04:07:59.090Z,97925.31
2018-08-09T04:10:27.833Z,97925.77
2018-08-09T04:12:56.386Z,97923.48
2018-08-09T04:15:24.934Z,97925.57
2018-08-09T04:17:53.527Z,97926.53
2018-08-09T04:20:22.094Z,97932.93
2018-08-09T04:22:50.552Z,97931.27
2018-08-09T04:25:19.128Z,97941.58
2018-08-09T04:27:47.701Z,97936.09
2018-08-09T04:30:16.344Z,97935.69
2018-08-09T04:32:45.366Z,97936.93
2018-08-09T04:35:13.926Z,97927.81
2018-08-09T04:37:42.439Z,97927.08
2018-08-09T04:40:11.029Z,97935.91
2018-08-09T04:42:39.587Z,97941.16
2018-08-09T04:45:08.906Z,97944.48
2018-08-09T04:47:37.681Z,97942.83
2018-08-09T04:50:06.853Z,97944.27
2018-08-09T04:52:35.778Z,97952.23
2018-08-09T04:55:04.420Z,97950.03
2018-08-09T04:57:33.033Z,97946.88
2018-08-09T05:00:01.602Z,97952.98
2018-08-09T05:02:30.500Z,97950.97
2018-08-09T05:04:59.033Z,97947.47
2018-08-09T05:07:27.578Z,97950.12
2018-08-09T05:09:58.069Z,97952.47
2018-08-09T05:12:26.613Z,97953.83
2018-08-09T05:14:56.176Z,97945.69
2018-08-09T05:17:24.734Z,97952.26
2018-08-09T05:19:53.276Z,97955.19
2018-08-09T05:22:21.839Z,97954.40
2018-08-09T05:24:50.376Z,97949.97
2018-08-09T05:27:18.897Z,97953.20
2018-08-09T05:29:47.412Z,97946.97
2018-08-09T05:32:16.017Z,97946.87
2018-08-09T05:34:44.723Z,97945.23
2018-08-09T05:37:13.265Z,97943.16
2018-08-09T05:39:41.756Z,97942.83
2018-08-09T05:42:10.295Z,97951.27
2018-08-09T05:44:38.804Z,97942.53
2018-08-09T05:47:07.377Z,97947.73
2018-08-09T05:49:35.858Z,97942.66
2018-08-09T05:52:04.483Z,97945.17
2018-08-09T05:54:33.469Z,97935.52
2018-08-09T05:57:02.027Z,97939.78
2018-08-09T05:59:30.644Z,97939.69
2018-08-09T06:01:59.280Z,97943.59
2018-08-09T06:04:27.786Z,97934.02
2018-08-09T06:06:56.853Z,97937.47
2018-08-09T06:09:25.437Z,97938.56
2018-08-09T06:11:54.001Z,97936.91
2018-08-09T06:14:22.520Z,97934.99
2018-08-09T06:16:51.137Z,97939.43
2018-08-09T06:19:19.682Z,97936.13
2018-08-09T06:21:48.256Z,97940.08
2018-08-09T06:24:16.803Z,97937.56
2018-08-09T06:26:45.455Z,97945.58
2018-08-09T06:29:13.953Z,97941.71
2018-08-09T06:31:42.525Z,97939.38
2018-08-09T06:34:11.045Z,97945.00
2018-08-09T06:36:39.593Z,97946.05
2018-08-09T06:39:08.961Z,97941.25
2018-08-09T06:41:38.484Z,97950.00
2018-08-09T06:44:07.049Z,97954.73
2018-08-09T06:46:35.560Z,97955.82
2018-08-09T06:49:04.129Z,97959.31
2018-08-09T06:51:32.644Z,97962.80
2018-08-09T06:54:01.230Z,97959.37
2018-08-09T06:56:30.153Z,97958.41
2018-08-09T06:58:59.024Z,97960.25
2018-08-09T07:01:27.532Z,97967.90
2018-08-09T07:03:56.533Z,97952.46
2018-08-09T07:06:25.018Z,97940.78
2018-08-09T07:08:53.637Z,97948.11
2018-08-09T07:11:22.177Z,97946.88
2018-08-09T07:13:50.766Z,97955.09
2018-08-09T07:16:19.253Z,97955.31
2018-08-09T07:18:47.789Z,97944.95
2018-08-09T07:21:16.498Z,97946.95
2018-08-09T07:23:45.041Z,97940.96
2018-08-09T07:26:13.577Z,97946.39
2018-08-09T07:28:42.475Z,97939.30
2018-08-09T07:31:11.325Z,97937.20
2018-08-09T07:33:39.969Z,97932.52
2018-08-09T07:36:08.514Z,97939.62
2018-08-09T07:38:37.089Z,97939.52
2018-08-09T07:41:05.637Z,97933.30
2018-08-09T07:43:34.170Z,97931.38
2018-08-09T07:46:03.305Z,97929.17
2018-08-09T07:48:31.893Z,97932.50
2018-08-09T07:51:00.377Z,97925.26
2018-08-09T07:53:29.518Z,97925.80
2018-08-09T07:55:58.037Z,97922.78
2018-08-09T07:58:27.122Z,97929.79
2018-08-09T08:00:56.604Z,97928.67
2018-08-09T08:03:25.176Z,97920.58
2018-08-09T08:05:53.695Z,97923.16
2018-08-09T08:08:22.286Z,97922.43
2018-08-09T08:10:50.795Z,97913.92
2018-08-09T08:13:20.517Z,97912.46
2018-08-09T08:15:49.063Z,97910.27
2018-08-09T08:18:17.603Z,97911.13
2018-08-09T08:20:46.171Z,97913.33
2018-08-09T08:23:14.732Z,97906.68
2018-08-09T08:25:43.265Z,97906.78
2018-08-09T08:28:11.880Z,97902.27
2018-08-09T08:30:40.427Z,97904.76
2018-08-09T08:33:08.976Z,97906.69
2018-08-09T08:35:37.457Z,97901.52
2018-08-09T08:38:06.248Z,97904.09
2018-08-09T08:40:34.745Z,97906.78
2018-08-09T08:43:03.303Z,97895.50
2018-08-09T08:45:31.835Z,97896.70
2018-08-09T08:48:00.412Z,97889.69
2018-08-09T08:50:28.938Z,97887.05
2018-08-09T08:52:57.446Z,97890.45
2018-08-09T08:55:25.991Z,97881.56
2018-08-09T08:57:54.555Z,97874.77
2018-08-09T09:00:23.097Z,97870.33
2018-08-09T09:02:55.016Z,97862.70
2018-08-09T09:05:23.596Z,97879.98
2018-08-09T09:07:55.380Z,97868.44
2018-08-09T09:10:23.943Z,97866.13
2018-08-09T09:12:52.489Z,97864.91
2018-08-09T09:15:24.769Z,97860.94
2018-08-09T09:17:53.309Z,97849.97
2018-08-09T09:20:21.823Z,97855.09
2018-08-09T09:22:50.338Z,97848.05
2018-08-09T09:25:18.853Z,97843.31
2018-08-09T09:27:47.336Z,97838.28
2018-08-09T09:30:17.353Z,97820.59
2018-08-09T09:32:46.109Z,97813.58
2018-08-09T09:35:14.630Z,97808.72
2018-08-09T09:37:43.735Z,97817.27
2018-08-09T09:40:12.285Z,97812.39
2018-08-09T09:42:41.541Z,97818.34
2018-08-09T09:45:15.890Z,97813.92
2018-08-09T09:47:49.078Z,97807.47
2018-08-09T09:50:17.689Z,97803.41
2018-08-09T09:52:48.301Z,97801.59
2018-08-09T09:55:16.826Z,97801.77
2018-08-09T09:57:45.341Z,97795.25
2018-08-09T10:00:19.154Z,97789.45
2018-08-09T10:02:47.610Z,97785.14
2018-08-09T10:05:16.460Z,97780.94
2018-08-09T10:07:44.926Z,97791.75
2018-08-09T10:10:13.449Z,97785.86
2018-08-09T10:12:42.810Z,97777.44
2018-08-09T10:15:11.525Z,97782.62
2018-08-09T10:17:39.993Z,97777.16
2018-08-09T10:20:09.005Z,97776.98
2018-08-09T10:22:37.788Z,97771.91
2018-08-09T10:25:06.916Z,97767.72
2018-08-09T10:27:35.406Z,97767.48
2018-08-09T10:30:04.017Z,97764.97
2018-08-09T10:32:32.497Z,97752.49
2018-08-09T10:35:01.052Z,97759.95
2018-08-09T10:37:29.866Z,97757.19
2018-08-09T10:39:58.447Z,97755.70
2018-08-09T10:42:26.985Z,97761.38
2018-08-09T10:44:55.579Z,97754.46
2018-08-09T10:47:24.089Z,97753.88
2018-08-09T10:49:52.605Z,97746.71
2018-08-09T10:52:21.143Z,97758.13
2018-08-09T10:54:49.644Z,97760.98
2018-08-09T10:57:18.162Z,97754.49
2018-08-09T10:59:46.725Z,97742.98
2018-08-09T11:02:15.254Z,97740.19
2018-08-09T11:04:44.200Z,97741.06
2018-08-09T11:07:13.101Z,97737.99
2018-08-09T11:09:41.637Z,97731.70
2018-08-09T11:13:34.574Z,97726.69
2018-08-09T11:16:03.102Z,97729.23
2018-08-09T11:18:31.801Z,97734.50
2018-08-09T11:21:00.535Z,97723.44
2018-08-09T11:23:29.085Z,97727.86
2018-08-09T11:25:58.424Z,97720.30
2018-08-09T11:28:26.976Z,97713.98
2018-08-09T11:30:55.837Z,97720.27
2018-08-09T11:33:24.801Z,97711.48
2018-08-09T11:35:53.496Z,97700.14
2018-08-09T11:38:22.047Z,97703.00
2018-08-09T11:40:50.729Z,97705.38
2018-08-09T11:43:19.233Z,97689.69
2018-08-09T11:45:47.849Z,97689.30
2018-08-09T11:48:16.413Z,97692.03
2018-08-09T11:50:45.291Z,97684.25
2018-08-09T11:53:15.355Z,97683.69
2018-08-09T11:55:43.897Z,97679.28
2018-08-09T11:58:12.490Z,97671.87
2018-08-09T12:00:42.253Z,97666.63
2018-08-09T12:03:10.781Z,97666.09
2018-08-09T12:05:39.340Z,97665.73
2018-08-09T12:08:07.870Z,97655.38
2018-08-09T12:10:36.381Z,97664.50
2018-08-09T12:13:04.949Z,97656.50
2018-08-09T12:15:33.545Z,97661.45
2018-08-09T12:18:02.072Z,97653.95
2018-08-09T12:20:30.684Z,97658.89
2018-08-09T12:22:59.197Z,97647.32
2018-08-09T12:25:27.740Z,97645.73
2018-08-09T12:27:56.604Z,97657.30
2018-08-09T12:30:25.111Z,97636.27
2018-08-09T12:32:53.671Z,97646.13
2018-08-09T12:35:22.150Z,97641.81
2018-08-09T12:37:50.733Z,97637.41
2018-08-09T12:40:19.221Z,97635.01
2018-08-09T12:42:47.772Z,97628.75
2018-08-09T12:45:16.268Z,97622.63
2018-08-09T12:47:44.801Z,97636.91
2018-08-09T12:50:14.416Z,97633.00
2018-08-09T12:52:43.994Z,97624.56
2018-08-09T12:55:13.696Z,97623.40
2018-08-09T12:57:42.616Z,97616.70
2018-08-09T13:00:13.078Z,97617.14
2018-08-09T13:02:41.982Z,97621.59
2018-08-09T13:05:11.827Z,97624.13
2018-08-09T13:07:40.797Z,97626.41
2018-08-09T13:10:15.986Z,97615.97
2018-08-09T13:12:44.547Z,97609.33
2018-08-09T13:15:14.162Z,97610.23
2018-08-09T13:17:43.663Z,97596.79
2018-08-09T13:20:15.202Z,97590.13
2018-08-09T13:22:43.744Z,97580.67
2018-08-09T13:25:12.357Z,97574.55
2018-08-09T13:27:41.108Z,97579.25
2018-08-09T13:30:12.233Z,97580.71
2018-08-09T13:32:41.069Z,97569.25
2018-08-09T13:35:09.925Z,97563.85
2018-08-09T13:37:38.507Z,97566.69
2018-08-09T13:40:10.733Z,97557.36
2018-08-09T13:42:42.573Z,97550.70
2018-08-09T13:45:13.640Z,97550.55
2018-08-09T13:47:42.469Z,97557.67
2018-08-09T13:50:11.780Z,97559.98
2018-08-09T13:52:41.168Z,97552.81
2018-08-09T13:56:36.680Z,97539.81
2018-08-09T13:59:05.246Z,97538.94
2018-08-09T14:01:33.814Z,97537.44
2018-08-09T14:04:02.354Z,97531.06
2018-08-09T14:06:30.821Z,97526.41
2018-08-09T14:08:59.408Z,97528.19
2018-08-09T14:11:27.998Z,97518.44
2018-08-09T14:13:56.540Z,97520.37
2018-08-09T14:16:25.064Z,97504.39
2018-08-09T14:18:53.641Z,97510.61
2018-08-09T14:21:22.145Z,97511.14
2018-08-09T14:23:50.855Z,97504.42
2018-08-09T14:26:19.378Z,97506.20
2018-08-09T14:28:47.959Z,97501.86
2018-08-09T14:31:18.608Z,97495.58
2018-08-09T14:33:47.163Z,97496.04
2018-08-09T14:36:15.643Z,97488.47
2018-08-09T14:38:44.305Z,97485.73
2018-08-09T14:41:13.242Z,97493.48
2018-08-09T14:43:41.768Z,97486.59
2018-08-09T14:46:10.267Z,97485.33
2018-08-09T14:48:38.796Z,97484.33
2018-08-09T14:51:07.337Z,97490.45
2018-08-09T14:53:35.917Z,97485.41
2018-08-09T14:56:04.492Z,97489.03
2018-08-09T14:58:33.048Z,97499.02
2018-08-09T15:01:01.546Z,97502.38
2018-08-09T15:03:30.105Z,97488.89
2018-08-09T15:05:58.650Z,97485.54
2018-08-09T15:08:27.156Z,97483.26
2018-08-09T15:10:55.679Z,97484.03
2018-08-09T15:13:24.232Z,97486.63
2018-08-09T15:15:52.777Z,97482.94
2018-08-09T15:18:21.261Z,97486.47
2018-08-09T15:20:49.744Z,97490.77
2018-08-09T15:23:18.302Z,97478.16
2018-08-09T15:25:46.797Z,97477.02
2018-08-09T15:28:15.367Z,97476.81
2018-08-09T15:30:43.834Z,97474.25
2018-08-09T15:33:12.333Z,97467.68
2018-08-09T15:35:40.840Z,97466.17
2018-08-09T15:38:09.444Z,97467.24
2018-08-09T15:40:37.961Z,97457.78
2018-08-09T15:43:06.508Z,97455.11
2018-08-09T15:45:35.022Z,97465.07
2018-08-09T15:48:03.609Z,97463.11
2018-08-09T15:50:32.171Z,97454.66
2018-08-09T15:53:00.704Z,97461.63
2018-08-09T15:55:29.192Z,97471.97
2018-08-09T15:57:57.789Z,97468.69
2018-08-09T16:00:26.342Z,97469.12
2018-08-09T16:02:54.858Z,97472.33
2018-08-09T16:05:23.428Z,97467.73
2018-08-09T16:07:51.976Z,97466.53
2018-08-09T16:10:20.536Z,97470.90
2018-08-09T16:12:49.102Z,97469.14
2018-08-09T16:15:18.977Z,97469.39
2018-08-09T16:17:48.369Z,97469.69
2018-08-09T16:20:17.030Z,97471.28
2018-08-09T16:22:46.269Z,97468.69
2018-08-09T16:25:17.213Z,97471.97
2018-08-09T16:27:45.845Z,97478.61
2018-08-09T16:30:18.058Z,97469.56
2018-08-09T16:32:46.603Z,97472.06
2018-08-09T16:35:15.347Z,97472.34
2018-08-09T16:37:44.584Z,97475.98
2018-08-09T16:40:18.713Z,97479.63
2018-08-09T16:42:47.745Z,97475.05
2018-08-09T16:45:17.496Z,97476.90
2018-08-09T16:47:46.073Z,97476.59
2018-08-09T16:50:19.841Z,97485.21
2018-08-09T16:52:50.249Z,97481.14
2018-08-09T16:55:19.697Z,97469.92
2018-08-09T16:57:48.401Z,97474.42
2018-08-09T17:00:18.357Z,97467.10
2018-08-09T17:02:46.891Z,97470.94
2018-08-09T17:05:18.528Z,97473.88
2018-08-09T17:07:47.189Z,97478.96
2018-08-09T17:10:18.491Z,97473.83
2018-08-09T17:12:47.272Z,97476.33
2018-08-09T17:15:21.365Z,97469.63
2018-08-09T17:17:50.033Z,97469.85
2018-08-09T17:20:24.760Z,97480.88
2018-08-09T17:22:53.357Z,97474.55
2018-08-09T17:25:21.937Z,97471.53
2018-08-09T17:27:50.910Z,97480.36
2018-08-09T17:30:21.094Z,97474.84
2018-08-09T17:32:49.600Z,97470.05
2018-08-09T17:35:18.785Z,97468.97
2018-08-09T17:37:47.420Z,97469.94
2018-08-09T17:40:22.821Z,97469.81
2018-08-09T17:42:52.289Z,97472.19
2018-08-09T17:45:25.660Z,97474.45
2018-08-09T17:47:54.506Z,97470.77
2018-08-09T17:50:23.393Z,97475.97
2018-08-09T17:52:51.952Z,97477.18
2018-08-09T17:55:20.494Z,97474.12
2018-08-09T17:57:49.058Z,97474.74
2018-08-09T18:00:23.984Z,97477.09
2018-08-09T18:02:52.953Z,97469.30
2018-08-09T18:05:21.618Z,97474.92
2018-08-09T18:07:50.515Z,97472.86
2018-08-09T18:10:27.162Z,97476.91
2018-08-09T18:12:56.090Z,97475.58
2018-08-09T18:15:26.001Z,97471.11
2018-08-09T18:17:55.114Z,97468.88
2018-08-09T18:20:29.169Z,97478.98
2018-08-09T18:22:58.101Z,97478.06
2018-08-09T18:25:30.054Z,97484.10
2018-08-09T18:27:58.744Z,97508.36
2018-08-09T18:30:27.302Z,97506.75
2018-08-09T18:32:56.769Z,97519.84
2018-08-09T18:35:25.333Z,97509.22
2018-08-09T18:37:54.166Z,97510.73
2018-08-09T18:40:24.907Z,97522.80
2018-08-09T18:42:53.566Z,97526.82
2018-08-09T18:45:22.704Z,97529.70
2018-08-09T18:47:51.397Z,97544.65
2018-08-09T18:50:26.351Z,97552.41
2018-08-09T18:52:54.987Z,97558.25
2018-08-09T18:55:23.856Z,97563.58
2018-08-09T18:57:52.496Z,97582.14
2018-08-09T19:00:26.951Z,97593.06
2018-08-09T19:02:55.600Z,97604.79
2018-08-09T19:05:24.462Z,97608.25
2018-08-09T19:07:53.058Z,97600.07
2018-08-09T19:10:24.037Z,97623.30
2018-08-09T19:12:52.594Z,97625.70
2018-08-09T19:15:21.229Z,97626.06
2018-08-09T19:17:50.001Z,97643.50
2018-08-09T19:20:23.573Z,97635.25
2018-08-09T19:22:52.380Z,97648.77
2018-08-09T19:25:21.089Z,97655.77
2018-08-09T19:27:49.707Z,97656.17
2018-08-09T19:30:19.984Z,97673.79
2018-08-09T19:32:49.465Z,97685.34
2018-08-09T19:35:20.471Z,97690.40
2018-08-09T19:37:49.119Z,97712.28
2018-08-09T19:40:19.519Z,97722.81
2018-08-09T19:42:48.152Z,97730.45
2018-08-09T19:45:17.849Z,97748.94
2018-08-09T19:47:46.513Z,97756.11
2018-08-09T19:50:19.524Z,97751.08
2018-08-09T19:52:48.243Z,97750.05
2018-08-09T19:55:20.678Z,97766.48
2018-08-09T19:57:49.933Z,97777.31
2018-08-09T20:00:22.094Z,97790.29
2018-08-09T20:02:50.824Z,97806.47
2018-08-09T20:05:19.484Z,97811.25
2018-08-09T20:07:48.141Z,97823.91
2018-08-09T20:10:16.819Z,97830.85
2018-08-09T20:12:46.265Z,97846.38
2018-08-09T20:15:17.082Z,97868.02
2018-08-09T20:17:45.756Z,97885.25
2018-08-09T20:20:15.906Z,97882.16
2018-08-09T20:22:44.614Z,97905.73
2018-08-09T20:25:13.889Z,97909.71
2018-08-09T20:27:43.034Z,97908.68
2018-08-09T20:30:13.247Z,97900.19
2018-08-09T20:32:42.293Z,97925.44
2018-08-09T20:35:13.357Z,97941.70
2018-08-09T20:37:42.821Z,97945.73
2018-08-09T20:40:12.076Z,97954.94
2018-08-09T20:42:41.080Z,97968.39
2018-08-09T20:45:11.306Z,97971.17
2018-08-09T20:47:39.910Z,97981.05
2018-08-09T20:50:12.014Z,97977.94
2018-08-09T20:52:41.345Z,97979.31
2018-08-09T20:55:10.438Z,97988.41
2018-08-09T20:57:40.336Z,97998.13
2018-08-09T21:00:24.430Z,98005.63
2018-08-09T21:02:54.359Z,98018.63
2018-08-09T21:05:25.127Z,98022.47
2018-08-09T21:07:54.926Z,98032.97
2018-08-09T21:10:23.914Z,98044.83
2018-08-09T21:12:52.465Z,98049.01
2018-08-09T21:15:21.328Z,98062.69
2018-08-09T21:17:49.946Z,98068.41
2018-08-09T21:20:18.527Z,98075.83
2018-08-09T21:22:47.947Z,98081.55
2018-08-09T21:25:16.563Z,98076.31
2018-08-09T21:27:45.467Z,98087.14
2018-08-09T21:30:16.221Z,98097.77
2018-08-09T21:32:45.414Z,98101.50
2018-08-09T21:35:13.935Z,98103.05
2018-08-09T21:37:43.046Z,98105.34
2018-08-09T21:40:12.445Z,98103.87
2018-08-09T21:42:41.134Z,98107.23
2018-08-09T21:45:12.887Z,98125.05
2018-08-09T21:47:41.557Z,98128.02
2018-08-09T21:50:12.342Z,98135.27
2018-08-09T21:52:41.191Z,98140.81
2018-08-09T21:55:10.600Z,98146.09
2018-08-09T21:57:39.181Z,98149.59
2018-08-09T22:00:39.210Z,98155.23
2018-08-09T22:03:07.820Z,98156.53
2018-08-09T22:05:41.786Z,98161.73
2018-08-09T22:08:15.530Z,98166.91
2018-08-09T22:10:49.424Z,98169.81
2018-08-09T22:13:23.213Z,98177.50
2018-08-09T22:15:57.014Z,98174.51
2018-08-09T22:18:30.878Z,98176.55
2018-08-09T22:21:04.640Z,98177.74
2018-08-09T22:23:33.232Z,98181.15
2018-08-09T22:26:02.023Z,98185.61
2018-08-09T22:28:30.529Z,98183.69
2018-08-09T22:30:59.251Z,98183.38
2018-08-09T22:33:27.970Z,98182.06
2018-08-09T22:35:56.698Z,98172.11
2018-08-09T22:38:25.330Z,98178.13
2018-08-09T22:40:53.859Z,98186.00
2018-08-09T22:43:22.425Z,98180.30
2018-08-09T22:45:50.894Z,98178.31
2018-08-09T22:48:19.451Z,98189.03
2018-08-09T22:50:48.004Z,98186.11
2018-08-09T22:53:17.329Z,98170.69
2018-08-09T22:55:46.337Z,98183.49
2018-08-09T22:58:15.145Z,98186.77
2018-08-09T23:00:43.657Z,98182.62
2018-08-09T23:03:13.363Z,98186.20
2018-08-09T23:05:41.965Z,98197.09
2018-08-09T23:13:32.314Z,98224.20
2018-08-09T23:16:02.025Z,98224.84
2018-08-09T23:18:30.569Z,98231.69
2018-08-09T23:20:59.068Z,98237.28
2018-08-09T23:23:27.633Z,98240.59
2018-08-09T23:25:56.141Z,98237.11
2018-08-09T23:28:24.715Z,98236.36
2018-08-09T23:30:53.222Z,98226.61
2018-08-09T23:33:24.177Z,98219.09
2018-08-09T23:35:52.705Z,98218.34
2018-08-09T23:38:21.309Z,98220.17
2018-08-09T23:40:49.842Z,98218.76
2018-08-09T23:43:18.369Z,98214.01
2018-08-09T23:45:46.911Z,98218.78
2018-08-09T23:48:15.392Z,98221.34
2018-08-09T23:50:43.973Z,98218.04
2018-08-09T23:53:12.452Z,98215.94
2018-08-09T23:55:40.980Z,98205.36
2018-08-09T23:58:09.484Z,98205.80
